sensor_id;sensor_type;location;lat;lon;timestamp;temperature;humidity
32139;DHT22;18644;48.700;9.210;2023-02-15T00:01:36;2.70;58.90
32139;DHT22;18644;48.700;9.210;2023-02-15T00:04:04;2.70;59.00
32139;DHT22;18644;48.700;9.210;2023-02-15T00:06:32;2.70;59.10
32139;DHT22;18644;48.700;9.210;2023-02-15T00:08:59;2.70;59.20
32139;DHT22;18644;48.700;9.210;2023-02-15T00:11:27;2.60;59.20
32139;DHT22;18644;48.700;9.210;2023-02-15T00:14:10;2.60;59.30
32139;DHT22;18644;48.700;9.210;2023-02-15T00:16:38;2.60;59.30
32139;DHT22;18644;48.700;9.210;2023-02-15T00:19:06;2.60;59.30
32139;DHT22;18644;48.700;9.210;2023-02-15T00:21:35;2.60;59.30
32139;DHT22;18644;48.700;9.210;2023-02-15T00:24:04;2.50;59.20
32139;DHT22;18644;48.700;9.210;2023-02-15T00:26:35;2.50;59.30
32139;DHT22;18644;48.700;9.210;2023-02-15T00:29:02;2.50;59.30
32139;DHT22;18644;48.700;9.210;2023-02-15T00:31:30;2.50;59.30
32139;DHT22;18644;48.700;9.210;2023-02-15T00:34:01;2.50;59.40
32139;DHT22;18644;48.700;9.210;2023-02-15T00:36:29;2.40;59.40
32139;DHT22;18644;48.700;9.210;2023-02-15T00:38:56;2.40;59.50
32139;DHT22;18644;48.700;9.210;2023-02-15T00:41:23;2.40;59.60
32139;DHT22;18644;48.700;9.210;2023-02-15T00:43:51;2.40;59.60
32139;DHT22;18644;48.700;9.210;2023-02-15T00:46:18;2.30;59.50
32139;DHT22;18644;48.700;9.210;2023-02-15T00:48:45;2.30;59.50
32139;DHT22;18644;48.700;9.210;2023-02-15T00:51:12;2.30;59.60
32139;DHT22;18644;48.700;9.210;2023-02-15T00:53:39;2.30;59.60
32139;DHT22;18644;48.700;9.210;2023-02-15T00:56:06;2.30;59.60
32139;DHT22;18644;48.700;9.210;2023-02-15T00:58:33;2.30;59.60
32139;DHT22;18644;48.700;9.210;2023-02-15T01:01:05;2.20;59.60
32139;DHT22;18644;48.700;9.210;2023-02-15T01:03:33;2.20;59.60
32139;DHT22;18644;48.700;9.210;2023-02-15T01:06:01;2.20;59.70
32139;DHT22;18644;48.700;9.210;2023-02-15T01:08:28;2.20;59.70
32139;DHT22;18644;48.700;9.210;2023-02-15T01:10:55;2.20;59.70
32139;DHT22;18644;48.700;9.210;2023-02-15T01:13:25;2.10;59.80
32139;DHT22;18644;48.700;9.210;2023-02-15T01:15:53;2.10;59.80
32139;DHT22;18644;48.700;9.210;2023-02-15T01:18:22;2.10;59.80
32139;DHT22;18644;48.700;9.210;2023-02-15T01:20:49;2.10;59.80
32139;DHT22;18644;48.700;9.210;2023-02-15T01:23:16;2.10;59.90
32139;DHT22;18644;48.700;9.210;2023-02-15T01:25:43;2.00;59.80
32139;DHT22;18644;48.700;9.210;2023-02-15T01:28:10;2.00;59.90
32139;DHT22;18644;48.700;9.210;2023-02-15T01:30:37;2.00;60.00
32139;DHT22;18644;48.700;9.210;2023-02-15T01:33:04;2.00;60.00
32139;DHT22;18644;48.700;9.210;2023-02-15T01:35:33;2.00;60.00
32139;DHT22;18644;48.700;9.210;2023-02-15T01:38:00;2.00;60.10
32139;DHT22;18644;48.700;9.210;2023-02-15T01:40:26;2.00;60.20
32139;DHT22;18644;48.700;9.210;2023-02-15T01:42:55;1.90;60.30
32139;DHT22;18644;48.700;9.210;2023-02-15T01:45:23;1.90;60.30
32139;DHT22;18644;48.700;9.210;2023-02-15T01:47:56;1.90;60.30
32139;DHT22;18644;48.700;9.210;2023-02-15T01:50:31;1.90;60.30
32139;DHT22;18644;48.700;9.210;2023-02-15T01:53:07;1.90;60.20
32139;DHT22;18644;48.700;9.210;2023-02-15T01:55:40;1.90;60.30
32139;DHT22;18644;48.700;9.210;2023-02-15T01:58:10;1.80;60.20
32139;DHT22;18644;48.700;9.210;2023-02-15T02:00:37;1.80;60.70
32139;DHT22;18644;48.700;9.210;2023-02-15T02:03:04;1.80;60.10
32139;DHT22;18644;48.700;9.210;2023-02-15T02:05:32;1.80;60.10
32139;DHT22;18644;48.700;9.210;2023-02-15T02:08:02;1.80;60.20
32139;DHT22;18644;48.700;9.210;2023-02-15T02:10:29;1.70;60.10
32139;DHT22;18644;48.700;9.210;2023-02-15T02:12:58;1.70;60.20
32139;DHT22;18644;48.700;9.210;2023-02-15T02:15:36;1.70;60.20
32139;DHT22;18644;48.700;9.210;2023-02-15T02:18:20;1.70;60.40
32139;DHT22;18644;48.700;9.210;2023-02-15T02:21:13;1.70;60.50
32139;DHT22;18644;48.700;9.210;2023-02-15T02:27:28;1.70;60.70
32139;DHT22;18644;48.700;9.210;2023-02-15T02:30:27;1.60;60.50
32139;DHT22;18644;48.700;9.210;2023-02-15T02:33:31;1.60;60.60
32139;DHT22;18644;48.700;9.210;2023-02-15T02:36:14;1.60;60.60
32139;DHT22;18644;48.700;9.210;2023-02-15T02:38:51;1.60;60.50
32139;DHT22;18644;48.700;9.210;2023-02-15T02:41:27;1.50;60.40
32139;DHT22;18644;48.700;9.210;2023-02-15T02:44:04;1.50;60.40
32139;DHT22;18644;48.700;9.210;2023-02-15T02:46:39;1.50;60.40
32139;DHT22;18644;48.700;9.210;2023-02-15T02:49:14;1.50;60.40
32139;DHT22;18644;48.700;9.210;2023-02-15T02:51:41;1.50;60.30
32139;DHT22;18644;48.700;9.210;2023-02-15T02:54:08;1.40;60.40
32139;DHT22;18644;48.700;9.210;2023-02-15T02:56:37;1.40;60.50
32139;DHT22;18644;48.700;9.210;2023-02-15T02:59:10;1.40;60.60
32139;DHT22;18644;48.700;9.210;2023-02-15T03:01:43;1.40;60.70
32139;DHT22;18644;48.700;9.210;2023-02-15T03:04:16;1.40;60.80
32139;DHT22;18644;48.700;9.210;2023-02-15T03:06:47;1.40;60.90
32139;DHT22;18644;48.700;9.210;2023-02-15T03:09:22;1.40;60.90
32139;DHT22;18644;48.700;9.210;2023-02-15T03:12:00;1.40;61.00
32139;DHT22;18644;48.700;9.210;2023-02-15T03:14:28;1.40;60.90
32139;DHT22;18644;48.700;9.210;2023-02-15T03:16:56;1.40;60.80
32139;DHT22;18644;48.700;9.210;2023-02-15T03:19:27;1.30;60.70
32139;DHT22;18644;48.700;9.210;2023-02-15T03:21:59;1.30;60.60
32139;DHT22;18644;48.700;9.210;2023-02-15T03:24:37;1.30;60.60
32139;DHT22;18644;48.700;9.210;2023-02-15T03:27:13;1.30;60.50
32139;DHT22;18644;48.700;9.210;2023-02-15T03:29:44;1.30;60.40
32139;DHT22;18644;48.700;9.210;2023-02-15T03:32:14;1.30;60.30
32139;DHT22;18644;48.700;9.210;2023-02-15T03:34:43;1.20;60.20
32139;DHT22;18644;48.700;9.210;2023-02-15T03:37:14;1.20;60.20
32139;DHT22;18644;48.700;9.210;2023-02-15T03:39:48;1.20;60.30
32139;DHT22;18644;48.700;9.210;2023-02-15T03:42:24;1.20;60.30
32139;DHT22;18644;48.700;9.210;2023-02-15T03:44:57;1.20;60.30
32139;DHT22;18644;48.700;9.210;2023-02-15T03:47:28;1.10;60.20
32139;DHT22;18644;48.700;9.210;2023-02-15T03:50:01;1.10;60.20
32139;DHT22;18644;48.700;9.210;2023-02-15T03:52:29;1.10;60.20
32139;DHT22;18644;48.700;9.210;2023-02-15T03:54:57;1.10;60.60
32139;DHT22;18644;48.700;9.210;2023-02-15T03:57:27;1.00;60.00
32139;DHT22;18644;48.700;9.210;2023-02-15T04:00:15;1.00;60.00
32139;DHT22;18644;48.700;9.210;2023-02-15T04:03:20;1.00;60.00
32139;DHT22;18644;48.700;9.210;2023-02-15T04:06:06;1.00;60.20
32139;DHT22;18644;48.700;9.210;2023-02-15T04:08:33;0.90;60.40
32139;DHT22;18644;48.700;9.210;2023-02-15T04:11:18;0.90;60.50
32139;DHT22;18644;48.700;9.210;2023-02-15T04:13:45;0.90;60.70
32139;DHT22;18644;48.700;9.210;2023-02-15T04:16:11;0.90;60.80
32139;DHT22;18644;48.700;9.210;2023-02-15T04:18:40;0.90;60.90
32139;DHT22;18644;48.700;9.210;2023-02-15T04:21:29;0.90;61.00
32139;DHT22;18644;48.700;9.210;2023-02-15T04:24:14;1.00;61.10
32139;DHT22;18644;48.700;9.210;2023-02-15T04:27:00;1.00;61.20
32139;DHT22;18644;48.700;9.210;2023-02-15T04:29:28;1.00;61.10
32139;DHT22;18644;48.700;9.210;2023-02-15T04:31:57;0.90;61.10
32139;DHT22;18644;48.700;9.210;2023-02-15T04:34:25;1.00;61.20
32139;DHT22;18644;48.700;9.210;2023-02-15T04:36:53;1.00;61.20
32139;DHT22;18644;48.700;9.210;2023-02-15T04:39:20;1.00;61.20
32139;DHT22;18644;48.700;9.210;2023-02-15T04:41:47;1.00;61.30
32139;DHT22;18644;48.700;9.210;2023-02-15T04:44:14;1.00;61.30
32139;DHT22;18644;48.700;9.210;2023-02-15T04:46:41;1.00;61.30
32139;DHT22;18644;48.700;9.210;2023-02-15T04:49:08;1.00;61.30
32139;DHT22;18644;48.700;9.210;2023-02-15T04:51:35;1.10;61.30
32139;DHT22;18644;48.700;9.210;2023-02-15T04:54:04;1.10;61.30
32139;DHT22;18644;48.700;9.210;2023-02-15T04:56:31;1.10;61.50
32139;DHT22;18644;48.700;9.210;2023-02-15T04:58:59;1.10;61.50
32139;DHT22;18644;48.700;9.210;2023-02-15T05:01:26;1.10;61.60
32139;DHT22;18644;48.700;9.210;2023-02-15T05:03:53;1.10;61.60
32139;DHT22;18644;48.700;9.210;2023-02-15T05:06:20;1.10;61.60
32139;DHT22;18644;48.700;9.210;2023-02-15T05:08:47;1.10;61.60
32139;DHT22;18644;48.700;9.210;2023-02-15T05:11:15;1.10;61.60
32139;DHT22;18644;48.700;9.210;2023-02-15T05:13:42;1.10;61.60
32139;DHT22;18644;48.700;9.210;2023-02-15T05:16:09;1.10;61.60
32139;DHT22;18644;48.700;9.210;2023-02-15T05:18:36;1.10;61.60
32139;DHT22;18644;48.700;9.210;2023-02-15T05:21:03;1.10;61.60
32139;DHT22;18644;48.700;9.210;2023-02-15T05:23:30;1.10;61.70
32139;DHT22;18644;48.700;9.210;2023-02-15T05:25:57;1.10;61.70
32139;DHT22;18644;48.700;9.210;2023-02-15T05:28:54;1.10;61.70
32139;DHT22;18644;48.700;9.210;2023-02-15T05:31:21;1.10;61.70
32139;DHT22;18644;48.700;9.210;2023-02-15T05:33:48;1.10;61.80
32139;DHT22;18644;48.700;9.210;2023-02-15T05:36:15;1.10;62.00
32139;DHT22;18644;48.700;9.210;2023-02-15T05:38:42;1.10;62.10
32139;DHT22;18644;48.700;9.210;2023-02-15T05:41:10;1.10;62.10
32139;DHT22;18644;48.700;9.210;2023-02-15T05:43:38;1.10;62.10
32139;DHT22;18644;48.700;9.210;2023-02-15T05:46:06;1.10;62.20
32139;DHT22;18644;48.700;9.210;2023-02-15T05:48:34;1.10;62.20
32139;DHT22;18644;48.700;9.210;2023-02-15T05:51:03;1.10;62.30
32139;DHT22;18644;48.700;9.210;2023-02-15T05:53:34;1.10;62.50
32139;DHT22;18644;48.700;9.210;2023-02-15T05:56:03;1.10;62.50
32139;DHT22;18644;48.700;9.210;2023-02-15T05:58:33;1.10;62.40
32139;DHT22;18644;48.700;9.210;2023-02-15T06:01:08;1.10;62.40
32139;DHT22;18644;48.700;9.210;2023-02-15T06:03:35;1.10;62.30
32139;DHT22;18644;48.700;9.210;2023-02-15T06:06:02;1.10;63.00
32139;DHT22;18644;48.700;9.210;2023-02-15T06:08:30;1.10;62.30
32139;DHT22;18644;48.700;9.210;2023-02-15T06:10:57;1.10;62.30
32139;DHT22;18644;48.700;9.210;2023-02-15T06:13:24;1.10;62.30
32139;DHT22;18644;48.700;9.210;2023-02-15T06:15:51;1.10;62.90
32139;DHT22;18644;48.700;9.210;2023-02-15T06:18:20;1.10;62.20
32139;DHT22;18644;48.700;9.210;2023-02-15T06:20:47;1.10;62.20
32139;DHT22;18644;48.700;9.210;2023-02-15T06:23:15;1.10;62.30
32139;DHT22;18644;48.700;9.210;2023-02-15T06:25:43;1.10;62.30
32139;DHT22;18644;48.700;9.210;2023-02-15T06:28:11;1.10;62.30
32139;DHT22;18644;48.700;9.210;2023-02-15T06:30:38;1.10;62.30
32139;DHT22;18644;48.700;9.210;2023-02-15T06:33:05;1.10;62.30
32139;DHT22;18644;48.700;9.210;2023-02-15T06:35:33;1.10;62.30
32139;DHT22;18644;48.700;9.210;2023-02-15T06:38:00;1.10;62.30
32139;DHT22;18644;48.700;9.210;2023-02-15T06:40:27;1.10;62.20
32139;DHT22;18644;48.700;9.210;2023-02-15T06:42:54;1.10;62.20
32139;DHT22;18644;48.700;9.210;2023-02-15T06:45:21;1.10;62.20
32139;DHT22;18644;48.700;9.210;2023-02-15T06:47:48;1.00;62.10
32139;DHT22;18644;48.700;9.210;2023-02-15T06:50:18;1.00;62.10
32139;DHT22;18644;48.700;9.210;2023-02-15T06:52:47;1.10;62.10
32139;DHT22;18644;48.700;9.210;2023-02-15T06:55:14;1.00;62.00
32139;DHT22;18644;48.700;9.210;2023-02-15T06:57:41;1.00;62.00
32139;DHT22;18644;48.700;9.210;2023-02-15T07:00:09;1.00;62.00
32139;DHT22;18644;48.700;9.210;2023-02-15T07:02:36;1.00;62.00
32139;DHT22;18644;48.700;9.210;2023-02-15T07:05:03;1.00;62.10
32139;DHT22;18644;48.700;9.210;2023-02-15T07:07:30;1.00;62.10
32139;DHT22;18644;48.700;9.210;2023-02-15T07:09:59;1.00;62.10
32139;DHT22;18644;48.700;9.210;2023-02-15T07:12:26;1.00;62.20
32139;DHT22;18644;48.700;9.210;2023-02-15T07:15:08;1.00;62.30
32139;DHT22;18644;48.700;9.210;2023-02-15T07:17:36;1.00;62.30
32139;DHT22;18644;48.700;9.210;2023-02-15T07:20:05;1.10;62.50
32139;DHT22;18644;48.700;9.210;2023-02-15T07:22:34;1.10;62.50
32139;DHT22;18644;48.700;9.210;2023-02-15T07:25:04;1.10;62.70
32139;DHT22;18644;48.700;9.210;2023-02-15T07:27:33;1.10;62.90
32139;DHT22;18644;48.700;9.210;2023-02-15T07:30:00;1.20;63.10
32139;DHT22;18644;48.700;9.210;2023-02-15T07:32:28;1.20;63.30
32139;DHT22;18644;48.700;9.210;2023-02-15T07:34:55;1.30;63.40
32139;DHT22;18644;48.700;9.210;2023-02-15T07:37:22;1.40;63.60
32139;DHT22;18644;48.700;9.210;2023-02-15T07:39:50;1.40;63.70
32139;DHT22;18644;48.700;9.210;2023-02-15T07:42:21;1.50;64.00
32139;DHT22;18644;48.700;9.210;2023-02-15T07:44:48;1.60;64.10
32139;DHT22;18644;48.700;9.210;2023-02-15T07:47:15;1.60;64.20
32139;DHT22;18644;48.700;9.210;2023-02-15T07:49:42;1.80;64.40
32139;DHT22;18644;48.700;9.210;2023-02-15T07:52:09;1.80;64.40
32139;DHT22;18644;48.700;9.210;2023-02-15T07:54:36;1.90;64.50
32139;DHT22;18644;48.700;9.210;2023-02-15T07:57:03;2.00;64.60
32139;DHT22;18644;48.700;9.210;2023-02-15T07:59:32;2.10;64.70
32139;DHT22;18644;48.700;9.210;2023-02-15T08:01:58;2.20;64.80
32139;DHT22;18644;48.700;9.210;2023-02-15T08:04:27;2.30;64.80
32139;DHT22;18644;48.700;9.210;2023-02-15T08:06:54;2.40;64.90
32139;DHT22;18644;48.700;9.210;2023-02-15T08:09:21;2.50;65.00
32139;DHT22;18644;48.700;9.210;2023-02-15T08:11:49;2.60;65.10
32139;DHT22;18644;48.700;9.210;2023-02-15T08:14:17;2.70;65.10
32139;DHT22;18644;48.700;9.210;2023-02-15T08:16:48;2.80;65.10
32139;DHT22;18644;48.700;9.210;2023-02-15T08:19:18;2.90;65.10
32139;DHT22;18644;48.700;9.210;2023-02-15T08:21:48;3.10;65.00
32139;DHT22;18644;48.700;9.210;2023-02-15T08:24:17;3.10;65.10
32139;DHT22;18644;48.700;9.210;2023-02-15T08:26:46;3.30;65.30
32139;DHT22;18644;48.700;9.210;2023-02-15T08:29:14;3.40;65.30
32139;DHT22;18644;48.700;9.210;2023-02-15T08:31:43;3.50;65.40
32139;DHT22;18644;48.700;9.210;2023-02-15T08:34:14;3.60;65.40
32139;DHT22;18644;48.700;9.210;2023-02-15T08:36:43;3.70;65.40
32139;DHT22;18644;48.700;9.210;2023-02-15T08:39:11;3.90;65.50
32139;DHT22;18644;48.700;9.210;2023-02-15T08:41:41;4.00;65.70
32139;DHT22;18644;48.700;9.210;2023-02-15T08:44:09;4.20;66.60
32139;DHT22;18644;48.700;9.210;2023-02-15T08:46:38;4.50;67.50
32139;DHT22;18644;48.700;9.210;2023-02-15T08:49:06;4.80;68.60
32139;DHT22;18644;48.700;9.210;2023-02-15T08:51:36;5.00;68.50
32139;DHT22;18644;48.700;9.210;2023-02-15T08:54:05;5.30;68.70
32139;DHT22;18644;48.700;9.210;2023-02-15T08:56:36;5.60;68.60
32139;DHT22;18644;48.700;9.210;2023-02-15T08:59:05;5.80;67.30
32139;DHT22;18644;48.700;9.210;2023-02-15T09:01:34;6.00;66.00
32139;DHT22;18644;48.700;9.210;2023-02-15T09:04:03;6.20;65.00
32139;DHT22;18644;48.700;9.210;2023-02-15T09:06:33;6.30;64.20
32139;DHT22;18644;48.700;9.210;2023-02-15T09:09:01;6.30;63.70
32139;DHT22;18644;48.700;9.210;2023-02-15T09:11:30;6.40;63.50
32139;DHT22;18644;48.700;9.210;2023-02-15T09:14:02;6.40;63.20
32139;DHT22;18644;48.700;9.210;2023-02-15T09:16:32;6.50;63.00
32139;DHT22;18644;48.700;9.210;2023-02-15T09:19:01;6.60;63.10
32139;DHT22;18644;48.700;9.210;2023-02-15T09:21:30;6.70;62.90
32139;DHT22;18644;48.700;9.210;2023-02-15T09:24:03;6.80;62.90
32139;DHT22;18644;48.700;9.210;2023-02-15T09:26:32;6.90;63.80
32139;DHT22;18644;48.700;9.210;2023-02-15T09:29:01;6.90;63.30
32139;DHT22;18644;48.700;9.210;2023-02-15T09:31:30;7.10;63.00
32139;DHT22;18644;48.700;9.210;2023-02-15T09:33:59;7.10;62.60
32139;DHT22;18644;48.700;9.210;2023-02-15T09:36:28;7.20;62.40
32139;DHT22;18644;48.700;9.210;2023-02-15T09:38:59;7.30;62.20
32139;DHT22;18644;48.700;9.210;2023-02-15T09:41:48;7.40;61.80
32139;DHT22;18644;48.700;9.210;2023-02-15T09:44:30;7.50;61.90
32139;DHT22;18644;48.700;9.210;2023-02-15T09:47:20;7.60;61.70
32139;DHT22;18644;48.700;9.210;2023-02-15T09:49:58;7.70;61.70
32139;DHT22;18644;48.700;9.210;2023-02-15T09:52:43;7.90;61.60
32139;DHT22;18644;48.700;9.210;2023-02-15T09:55:28;8.00;61.40
32139;DHT22;18644;48.700;9.210;2023-02-15T09:58:09;8.10;61.50
32139;DHT22;18644;48.700;9.210;2023-02-15T10:00:47;8.20;61.50
32139;DHT22;18644;48.700;9.210;2023-02-15T10:03:28;8.40;61.40
32139;DHT22;18644;48.700;9.210;2023-02-15T10:06:22;8.50;61.20
32139;DHT22;18644;48.700;9.210;2023-02-15T10:09:15;8.60;60.60
32139;DHT22;18644;48.700;9.210;2023-02-15T10:12:05;8.70;60.00
32139;DHT22;18644;48.700;9.210;2023-02-15T10:17:59;8.90;59.30
32139;DHT22;18644;48.700;9.210;2023-02-15T10:20:38;9.00;59.60
32139;DHT22;18644;48.700;9.210;2023-02-15T10:23:21;9.10;59.50
32139;DHT22;18644;48.700;9.210;2023-02-15T10:26:11;9.20;59.40
32139;DHT22;18644;48.700;9.210;2023-02-15T10:28:46;9.40;59.80
32139;DHT22;18644;48.700;9.210;2023-02-15T10:31:22;9.50;60.00
32139;DHT22;18644;48.700;9.210;2023-02-15T10:34:11;9.70;59.90
32139;DHT22;18644;48.700;9.210;2023-02-15T10:36:57;9.90;59.30
32139;DHT22;18644;48.700;9.210;2023-02-15T10:39:40;10.00;59.00
32139;DHT22;18644;48.700;9.210;2023-02-15T10:42:22;10.20;59.60
32139;DHT22;18644;48.700;9.210;2023-02-15T10:45:06;10.40;58.90
32139;DHT22;18644;48.700;9.210;2023-02-15T10:47:59;10.50;58.60
32139;DHT22;18644;48.700;9.210;2023-02-15T10:50:42;10.70;58.40
32139;DHT22;18644;48.700;9.210;2023-02-15T10:53:35;10.90;58.30
32139;DHT22;18644;48.700;9.210;2023-02-15T10:56:28;11.10;58.30
32139;DHT22;18644;48.700;9.210;2023-02-15T10:59:11;11.40;58.30
32139;DHT22;18644;48.700;9.210;2023-02-15T11:01:51;11.60;57.90
32139;DHT22;18644;48.700;9.210;2023-02-15T11:04:45;11.80;58.00
32139;DHT22;18644;48.700;9.210;2023-02-15T11:07:17;12.00;57.80
32139;DHT22;18644;48.700;9.210;2023-02-15T11:09:49;12.20;57.70
32139;DHT22;18644;48.700;9.210;2023-02-15T11:12:22;12.40;57.30
32139;DHT22;18644;48.700;9.210;2023-02-15T11:14:55;12.50;56.90
32139;DHT22;18644;48.700;9.210;2023-02-15T11:17:30;12.70;56.80
32139;DHT22;18644;48.700;9.210;2023-02-15T11:20:14;12.90;56.10
32139;DHT22;18644;48.700;9.210;2023-02-15T11:22:47;13.10;55.70
32139;DHT22;18644;48.700;9.210;2023-02-15T11:25:18;13.30;55.40
32139;DHT22;18644;48.700;9.210;2023-02-15T11:27:48;13.40;55.10
32139;DHT22;18644;48.700;9.210;2023-02-15T11:30:19;13.60;54.90
32139;DHT22;18644;48.700;9.210;2023-02-15T11:32:50;13.70;54.60
32139;DHT22;18644;48.700;9.210;2023-02-15T11:35:23;13.90;54.40
32139;DHT22;18644;48.700;9.210;2023-02-15T11:37:57;14.00;54.90
32139;DHT22;18644;48.700;9.210;2023-02-15T11:40:31;14.10;54.30
32139;DHT22;18644;48.700;9.210;2023-02-15T11:43:04;14.20;54.00
32139;DHT22;18644;48.700;9.210;2023-02-15T11:45:34;14.30;53.50
32139;DHT22;18644;48.700;9.210;2023-02-15T11:48:10;14.40;53.50
32139;DHT22;18644;48.700;9.210;2023-02-15T11:50:39;14.60;53.10
32139;DHT22;18644;48.700;9.210;2023-02-15T11:53:13;14.70;53.10
32139;DHT22;18644;48.700;9.210;2023-02-15T11:55:42;14.90;52.50
32139;DHT22;18644;48.700;9.210;2023-02-15T11:58:19;15.00;52.50
32139;DHT22;18644;48.700;9.210;2023-02-15T12:00:53;15.10;52.10
32139;DHT22;18644;48.700;9.210;2023-02-15T12:03:29;15.20;52.00
32139;DHT22;18644;48.700;9.210;2023-02-15T12:06:11;15.30;51.70
32139;DHT22;18644;48.700;9.210;2023-02-15T12:08:48;15.50;51.80
32139;DHT22;18644;48.700;9.210;2023-02-15T12:11:22;15.50;51.50
32139;DHT22;18644;48.700;9.210;2023-02-15T12:13:54;15.70;51.30
32139;DHT22;18644;48.700;9.210;2023-02-15T12:16:23;15.80;51.30
32139;DHT22;18644;48.700;9.210;2023-02-15T12:18:52;16.00;51.10
32139;DHT22;18644;48.700;9.210;2023-02-15T12:21:26;16.10;51.00
32139;DHT22;18644;48.700;9.210;2023-02-15T12:23:58;16.30;50.60
32139;DHT22;18644;48.700;9.210;2023-02-15T12:26:28;16.40;50.40
32139;DHT22;18644;48.700;9.210;2023-02-15T12:28:59;16.50;50.20
32139;DHT22;18644;48.700;9.210;2023-02-15T12:31:31;16.60;49.90
32139;DHT22;18644;48.700;9.210;2023-02-15T12:34:07;16.70;49.70
32139;DHT22;18644;48.700;9.210;2023-02-15T12:36:42;16.80;49.30
32139;DHT22;18644;48.700;9.210;2023-02-15T12:39:24;16.80;49.50
32139;DHT22;18644;48.700;9.210;2023-02-15T12:42:00;17.00;49.20
32139;DHT22;18644;48.700;9.210;2023-02-15T12:44:30;17.10;49.10
32139;DHT22;18644;48.700;9.210;2023-02-15T12:47:01;17.20;49.00
32139;DHT22;18644;48.700;9.210;2023-02-15T12:49:31;17.20;48.60
32139;DHT22;18644;48.700;9.210;2023-02-15T12:52:00;17.30;48.20
32139;DHT22;18644;48.700;9.210;2023-02-15T12:54:34;17.30;48.20
32139;DHT22;18644;48.700;9.210;2023-02-15T12:57:23;17.40;48.20
32139;DHT22;18644;48.700;9.210;2023-02-15T12:59:54;17.50;47.60
32139;DHT22;18644;48.700;9.210;2023-02-15T13:02:28;17.60;48.00
32139;DHT22;18644;48.700;9.210;2023-02-15T13:05:07;17.60;47.80
32139;DHT22;18644;48.700;9.210;2023-02-15T13:07:45;17.70;47.60
32139;DHT22;18644;48.700;9.210;2023-02-15T13:10:21;17.80;47.90
32139;DHT22;18644;48.700;9.210;2023-02-15T13:12:51;17.90;47.60
32139;DHT22;18644;48.700;9.210;2023-02-15T13:15:28;18.00;47.60
32139;DHT22;18644;48.700;9.210;2023-02-15T13:17:59;18.10;47.10
32139;DHT22;18644;48.700;9.210;2023-02-15T13:20:29;18.20;47.40
32139;DHT22;18644;48.700;9.210;2023-02-15T13:23:00;18.30;47.20
32139;DHT22;18644;48.700;9.210;2023-02-15T13:25:35;18.30;46.90
32139;DHT22;18644;48.700;9.210;2023-02-15T13:28:10;18.40;46.60
32139;DHT22;18644;48.700;9.210;2023-02-15T13:30:43;18.40;46.40
32139;DHT22;18644;48.700;9.210;2023-02-15T13:33:17;18.50;46.20
32139;DHT22;18644;48.700;9.210;2023-02-15T13:35:56;18.60;45.60
32139;DHT22;18644;48.700;9.210;2023-02-15T13:38:46;18.60;45.40
32139;DHT22;18644;48.700;9.210;2023-02-15T13:41:20;18.60;45.70
32139;DHT22;18644;48.700;9.210;2023-02-15T13:43:58;18.60;45.30
32139;DHT22;18644;48.700;9.210;2023-02-15T13:46:45;18.70;45.00
32139;DHT22;18644;48.700;9.210;2023-02-15T13:49:26;18.70;44.50
32139;DHT22;18644;48.700;9.210;2023-02-15T13:52:05;18.80;44.60
32139;DHT22;18644;48.700;9.210;2023-02-15T13:57:47;18.80;43.50
32139;DHT22;18644;48.700;9.210;2023-02-15T14:00:27;18.80;44.00
32139;DHT22;18644;48.700;9.210;2023-02-15T14:03:15;18.90;44.30
32139;DHT22;18644;48.700;9.210;2023-02-15T14:06:17;18.90;43.20
32139;DHT22;18644;48.700;9.210;2023-02-15T14:09:03;18.90;43.40
32139;DHT22;18644;48.700;9.210;2023-02-15T14:11:44;18.90;42.70
32139;DHT22;18644;48.700;9.210;2023-02-15T14:17:43;18.90;42.00
32139;DHT22;18644;48.700;9.210;2023-02-15T14:20:21;18.90;42.50
32139;DHT22;18644;48.700;9.210;2023-02-15T14:23:01;18.90;42.90
32139;DHT22;18644;48.700;9.210;2023-02-15T14:25:42;19.00;42.70
32139;DHT22;18644;48.700;9.210;2023-02-15T14:28:16;19.00;42.50
32139;DHT22;18644;48.700;9.210;2023-02-15T14:30:49;19.00;42.30
32139;DHT22;18644;48.700;9.210;2023-02-15T14:33:33;19.10;42.00
32139;DHT22;18644;48.700;9.210;2023-02-15T14:36:06;19.10;41.30
32139;DHT22;18644;48.700;9.210;2023-02-15T14:38:47;19.10;41.80
32139;DHT22;18644;48.700;9.210;2023-02-15T14:41:23;19.20;41.60
32139;DHT22;18644;48.700;9.210;2023-02-15T14:44:01;19.20;41.80
32139;DHT22;18644;48.700;9.210;2023-02-15T14:46:36;19.20;41.50
32139;DHT22;18644;48.700;9.210;2023-02-15T14:49:11;19.30;41.60
32139;DHT22;18644;48.700;9.210;2023-02-15T14:51:55;19.30;41.10
32139;DHT22;18644;48.700;9.210;2023-02-15T14:54:56;19.30;40.60
32139;DHT22;18644;48.700;9.210;2023-02-15T14:57:34;19.30;40.30
32139;DHT22;18644;48.700;9.210;2023-02-15T15:03:00;19.30;40.90
32139;DHT22;18644;48.700;9.210;2023-02-15T15:05:33;19.30;41.00
32139;DHT22;18644;48.700;9.210;2023-02-15T15:08:03;19.30;40.60
32139;DHT22;18644;48.700;9.210;2023-02-15T15:10:40;19.20;40.60
32139;DHT22;18644;48.700;9.210;2023-02-15T15:13:35;19.20;40.30
32139;DHT22;18644;48.700;9.210;2023-02-15T15:16:31;19.20;40.10
32139;DHT22;18644;48.700;9.210;2023-02-15T15:22:39;19.20;40.20
32139;DHT22;18644;48.700;9.210;2023-02-15T15:25:12;19.20;40.80
32139;DHT22;18644;48.700;9.210;2023-02-15T15:28:09;19.20;40.60
32139;DHT22;18644;48.700;9.210;2023-02-15T15:30:50;19.10;40.70
32139;DHT22;18644;48.700;9.210;2023-02-15T15:46:42;19.00;39.90
32139;DHT22;18644;48.700;9.210;2023-02-15T15:49:15;18.90;40.20
32139;DHT22;18644;48.700;9.210;2023-02-15T15:51:44;18.90;40.30
32139;DHT22;18644;48.700;9.210;2023-02-15T15:54:15;18.80;40.00
32139;DHT22;18644;48.700;9.210;2023-02-15T15:56:45;18.80;39.80
32139;DHT22;18644;48.700;9.210;2023-02-15T15:59:18;18.80;39.70
32139;DHT22;18644;48.700;9.210;2023-02-15T16:01:48;18.70;39.60
32139;DHT22;18644;48.700;9.210;2023-02-15T16:04:24;18.60;39.50
32139;DHT22;18644;48.700;9.210;2023-02-15T16:06:52;18.50;39.20
32139;DHT22;18644;48.700;9.210;2023-02-15T16:09:21;18.50;39.40
32139;DHT22;18644;48.700;9.210;2023-02-15T16:11:51;18.40;39.30
32139;DHT22;18644;48.700;9.210;2023-02-15T16:14:25;18.30;39.20
32139;DHT22;18644;48.700;9.210;2023-02-15T16:16:57;18.20;39.00
32139;DHT22;18644;48.700;9.210;2023-02-15T16:19:27;18.00;39.00
32139;DHT22;18644;48.700;9.210;2023-02-15T16:21:59;17.90;39.00
32139;DHT22;18644;48.700;9.210;2023-02-15T16:24:55;17.70;38.90
32139;DHT22;18644;48.700;9.210;2023-02-15T16:27:38;17.60;38.50
32139;DHT22;18644;48.700;9.210;2023-02-15T16:30:26;17.40;38.80
32139;DHT22;18644;48.700;9.210;2023-02-15T16:33:04;17.10;38.50
32139;DHT22;18644;48.700;9.210;2023-02-15T16:35:33;16.90;38.70
32139;DHT22;18644;48.700;9.210;2023-02-15T16:38:02;16.70;38.90
32139;DHT22;18644;48.700;9.210;2023-02-15T16:40:41;16.50;39.10
32139;DHT22;18644;48.700;9.210;2023-02-15T16:43:17;16.20;39.20
32139;DHT22;18644;48.700;9.210;2023-02-15T16:45:46;16.10;39.80
32139;DHT22;18644;48.700;9.210;2023-02-15T16:48:18;15.90;40.10
32139;DHT22;18644;48.700;9.210;2023-02-15T16:50:50;15.60;40.30